createdAt,value
2018-11-05T00:01:40.616Z,23.27
2018-11-05T00:04:09.209Z,23.97
2018-11-05T00:06:37.893Z,21.67
2018-11-05T00:09:08.909Z,22.60
2018-11-05T00:11:37.546Z,22.87
2018-11-05T00:14:06.554Z,22.53
2018-11-05T00:16:35.082Z,21.00
2018-11-05T00:19:03.720Z,21.47
2018-11-05T00:21:32.524Z,20.93
2018-11-05T00:24:01.233Z,20.80
2018-11-05T00:26:29.822Z,20.03
2018-11-05T00:28:58.461Z,20.80
2018-11-05T00:31:26.952Z,19.87
2018-11-05T00:33:55.426Z,19.53
2018-11-05T00:36:24.617Z,20.43
2018-11-05T00:38:53.158Z,20.00
2018-11-05T00:41:21.786Z,19.40
2018-11-05T00:43:50.529Z,19.77
2018-11-05T00:46:19.092Z,18.83
2018-11-05T00:48:47.946Z,19.20
2018-11-05T00:51:16.970Z,18.60
2018-11-05T00:53:45.834Z,18.30
2018-11-05T00:56:15.546Z,19.07
2018-11-05T00:58:44.585Z,18.40
2018-11-05T01:01:13.428Z,18.63
2018-11-05T01:03:42.337Z,18.07
2018-11-05T01:06:11.336Z,18.87
2018-11-05T01:08:47.006Z,17.87
2018-11-05T01:11:15.620Z,17.97
2018-11-05T01:13:44.093Z,18.20
2018-11-05T01:16:12.509Z,17.70
2018-11-05T01:18:41.410Z,16.97
2018-11-05T01:21:09.867Z,17.47
2018-11-05T01:23:38.550Z,16.83
2018-11-05T01:26:07.889Z,15.87
2018-11-05T01:28:36.332Z,16.80
2018-11-05T01:31:05.265Z,16.40
2018-11-05T01:33:33.855Z,16.90
2018-11-05T01:36:02.462Z,17.20
2018-11-05T01:38:31.057Z,17.03
2018-11-05T01:40:59.543Z,16.07
2018-11-05T01:43:28.206Z,16.03
2018-11-05T01:45:56.696Z,15.60
2018-11-05T01:48:25.228Z,16.13
2018-11-05T02:11:02.468Z,14.43
2018-11-05T02:13:31.701Z,13.50
2018-11-05T02:16:00.137Z,14.20
2018-11-05T02:18:28.579Z,14.47
2018-11-05T02:20:57.745Z,14.17
2018-11-05T02:23:26.168Z,13.80
2018-11-05T02:25:54.694Z,14.17
2018-11-05T02:28:23.390Z,13.53
2018-11-05T02:30:52.568Z,13.23
2018-11-05T02:33:21.047Z,13.00
2018-11-05T02:35:49.577Z,12.80
2018-11-05T02:38:18.188Z,12.30
2018-11-05T02:40:46.633Z,12.10
2018-11-05T02:43:15.047Z,11.73
2018-11-05T02:45:43.914Z,12.07
2018-11-05T02:48:12.558Z,12.30
2018-11-05T02:50:40.981Z,12.20
2018-11-05T02:53:09.520Z,12.13
2018-11-05T02:55:38.054Z,11.23
2018-11-05T02:58:06.671Z,11.77
2018-11-05T03:00:35.313Z,11.60
2018-11-05T03:03:04.333Z,12.17
2018-11-05T03:05:32.747Z,11.83
2018-11-05T03:08:01.456Z,10.80
2018-11-05T03:10:30.100Z,11.03
2018-11-05T03:12:58.570Z,10.10
2018-11-05T03:15:27.065Z,10.07
2018-11-05T03:17:55.625Z,10.90
2018-11-05T03:20:25.879Z,10.20
2018-11-05T03:22:54.663Z,10.03
2018-11-05T03:25:23.754Z,9.93
2018-11-05T03:27:53.005Z,10.33
2018-11-05T03:30:21.465Z,10.20
2018-11-05T03:32:50.374Z,9.63
2018-11-05T03:35:19.002Z,9.33
2018-11-05T03:37:47.696Z,8.93
2018-11-05T03:40:16.636Z,9.73
2018-11-05T03:42:45.680Z,9.60
2018-11-05T03:45:15.353Z,9.70
2018-11-05T03:47:44.809Z,9.30
2018-11-05T03:50:16.421Z,9.30
2018-11-05T03:52:46.019Z,9.03
2018-11-05T03:55:16.435Z,9.73
2018-11-05T03:57:45.425Z,8.87
2018-11-05T04:00:16.991Z,9.47
2018-11-05T04:02:48.081Z,8.23
2018-11-05T04:05:20.305Z,9.20
2018-11-05T04:07:49.333Z,9.00
2018-11-05T04:10:22.012Z,8.63
2018-11-05T04:12:52.042Z,8.27
2018-11-05T04:15:22.261Z,9.23
2018-11-05T04:17:51.036Z,8.80
2018-11-05T04:20:19.615Z,7.77
2018-11-05T04:22:48.513Z,8.37
2018-11-05T04:25:17.455Z,7.90
2018-11-05T04:27:46.415Z,8.63
2018-11-05T04:30:16.215Z,8.33
2018-11-05T04:32:44.878Z,7.90
2018-11-05T04:35:13.777Z,7.73
2018-11-05T04:37:42.281Z,8.03
2018-11-05T04:40:11.551Z,8.20
2018-11-05T04:42:40.295Z,7.73
2018-11-05T04:45:10.600Z,7.67
2018-11-05T04:47:40.258Z,7.67
2018-11-05T04:50:10.071Z,7.60
2018-11-05T04:52:39.169Z,8.00
2018-11-05T04:55:07.787Z,7.50
2018-11-05T04:57:36.591Z,7.17
2018-11-05T05:00:11.392Z,7.33
2018-11-05T05:02:41.191Z,7.63
2018-11-05T05:05:11.445Z,7.60
2018-11-05T05:07:40.398Z,7.03
2018-11-05T05:10:09.557Z,7.67
2018-11-05T05:12:45.513Z,7.17
2018-11-05T05:15:14.572Z,7.77
2018-11-05T05:17:43.273Z,7.13
2018-11-05T05:20:14.109Z,7.00
2018-11-05T05:22:43.306Z,7.13
2018-11-05T05:25:11.755Z,6.63
2018-11-05T05:27:40.859Z,7.00
2018-11-05T05:30:13.409Z,7.07
2018-11-05T05:32:42.321Z,7.07
2018-11-05T05:35:10.608Z,6.70
2018-11-05T05:37:39.283Z,6.83
2018-11-05T05:40:08.049Z,6.70
2018-11-05T05:42:36.533Z,6.87
2018-11-05T05:45:06.129Z,6.60
2018-11-05T05:47:34.545Z,6.50
2018-11-05T05:50:03.340Z,6.60
2018-11-05T05:52:32.049Z,6.53
2018-11-05T05:55:00.477Z,6.83
2018-11-05T05:57:28.922Z,7.60
2018-11-05T05:59:57.725Z,7.30
2018-11-05T06:02:26.139Z,6.93
2018-11-05T06:04:54.744Z,6.73
2018-11-05T06:07:23.397Z,6.40
2018-11-05T06:09:51.894Z,6.67
2018-11-05T06:12:20.409Z,6.40
2018-11-05T06:14:48.956Z,6.30
2018-11-05T06:17:17.690Z,6.80
2018-11-05T06:19:46.144Z,6.23
2018-11-05T06:22:15.212Z,6.43
2018-11-05T06:24:44.258Z,6.87
2018-11-05T06:27:12.733Z,6.67
2018-11-05T06:29:41.373Z,6.60
2018-11-05T06:32:10.030Z,6.37
2018-11-05T06:34:38.719Z,6.40
2018-11-05T06:37:07.301Z,6.53
2018-11-05T06:39:35.957Z,6.90
2018-11-05T06:42:04.673Z,7.23
2018-11-05T06:44:33.389Z,7.07
2018-11-05T06:47:02.144Z,6.10
2018-11-05T06:49:30.556Z,6.13
2018-11-05T06:51:58.969Z,5.70
2018-11-05T06:54:27.781Z,6.17
2018-11-05T06:56:56.985Z,6.23
2018-11-05T06:59:25.681Z,6.30
2018-11-05T07:01:54.369Z,5.80
2018-11-05T07:04:24.976Z,6.40
2018-11-05T07:06:53.542Z,6.20
2018-11-05T07:09:22.153Z,6.57
2018-11-05T07:11:50.678Z,7.00
2018-11-05T07:14:19.157Z,6.27
2018-11-05T07:16:47.609Z,6.13
2018-11-05T07:19:16.303Z,5.83
2018-11-05T07:21:44.713Z,6.07
2018-11-05T07:24:13.420Z,5.70
2018-11-05T07:26:42.249Z,6.40
2018-11-05T07:29:11.049Z,6.57
2018-11-05T07:31:39.683Z,6.53
2018-11-05T07:34:08.647Z,6.73
2018-11-05T07:36:37.309Z,7.13
2018-11-05T07:39:09.138Z,7.17
2018-11-05T07:41:38.906Z,7.47
2018-11-05T07:44:07.401Z,7.30
2018-11-05T07:46:36.013Z,7.33
2018-11-05T07:49:04.591Z,7.70
2018-11-05T07:51:33.439Z,8.00
2018-11-05T07:54:01.963Z,8.03
2018-11-05T07:56:30.477Z,8.00
2018-11-05T07:58:59.104Z,8.13
2018-11-05T08:01:28.123Z,9.53
2018-11-05T08:03:56.672Z,9.07
2018-11-05T08:06:25.269Z,9.83
2018-11-05T08:08:54.037Z,10.43
2018-11-05T08:11:22.967Z,10.70
2018-11-05T08:13:51.626Z,11.67
2018-11-05T08:16:20.052Z,11.17
2018-11-05T08:18:48.657Z,11.67
2018-11-05T08:21:17.264Z,14.40
2018-11-05T08:23:46.728Z,12.90
2018-11-05T08:26:15.353Z,14.27
2018-11-05T08:28:43.994Z,13.70
2018-11-05T08:31:12.463Z,14.10
2018-11-05T08:33:41.076Z,15.23
2018-11-05T08:36:09.976Z,15.30
2018-11-05T08:38:38.601Z,15.90
2018-11-05T08:41:07.274Z,16.20
2018-11-05T08:43:35.843Z,15.70
2018-11-05T08:46:04.541Z,16.77
2018-11-05T08:48:34.247Z,16.90
2018-11-05T08:51:02.885Z,17.17
2018-11-05T08:53:31.501Z,16.63
2018-11-05T08:56:00.221Z,16.10
2018-11-05T08:58:28.786Z,16.10
2018-11-05T09:01:03.789Z,16.90
2018-11-05T09:03:36.505Z,16.90
2018-11-05T09:06:04.956Z,17.17
2018-11-05T09:08:34.487Z,16.43
2018-11-05T09:11:03.890Z,17.83
2018-11-05T09:13:31.972Z,18.37
2018-11-05T09:16:01.158Z,18.33
2018-11-05T09:18:29.760Z,17.67
2018-11-05T09:20:58.379Z,18.03
2018-11-05T09:23:26.962Z,18.37
2018-11-05T09:25:55.563Z,18.67
2018-11-05T09:28:24.118Z,18.00
2018-11-05T09:30:52.695Z,18.60
2018-11-05T09:33:21.220Z,17.90
2018-11-05T09:35:49.753Z,17.90
2018-11-05T09:38:18.337Z,19.23
2018-11-05T09:40:46.776Z,17.63
2018-11-05T09:43:15.351Z,18.40
2018-11-05T09:45:44.458Z,19.17
2018-11-05T09:48:12.992Z,19.53
2018-11-05T09:50:41.577Z,17.77
2018-11-05T09:53:10.020Z,18.93
2018-11-05T09:55:38.540Z,18.17
2018-11-05T09:58:08.201Z,18.47
2018-11-05T10:00:36.759Z,17.17
2018-11-05T10:03:10.927Z,18.60
2018-11-05T10:05:39.300Z,18.20
2018-11-05T10:08:08.036Z,18.60
2018-11-05T10:10:36.974Z,18.20
2018-11-05T10:13:05.546Z,18.23
2018-11-05T10:15:34.049Z,17.57
2018-11-05T10:18:02.633Z,17.60
2018-11-05T10:20:31.268Z,18.20
2018-11-05T10:23:00.315Z,18.27
2018-11-05T10:25:28.829Z,18.73
2018-11-05T10:28:03.973Z,17.63
2018-11-05T10:30:32.760Z,18.67
2018-11-05T10:33:01.423Z,18.33
2018-11-05T10:35:35.408Z,17.67
2018-11-05T10:38:03.952Z,17.50
2018-11-05T10:40:32.620Z,17.20
2018-11-05T10:43:02.019Z,17.83
2018-11-05T10:45:31.505Z,17.10
2018-11-05T10:48:00.478Z,18.13
2018-11-05T10:50:30.101Z,17.70
2018-11-05T10:52:59.558Z,17.10
2018-11-05T10:55:28.118Z,16.63
2018-11-05T10:57:56.858Z,15.80
2018-11-05T11:00:30.705Z,16.43
2018-11-05T11:03:04.624Z,16.10
2018-11-05T11:05:33.178Z,15.63
2018-11-05T11:08:02.425Z,15.87
2018-11-05T11:10:31.747Z,15.70
2018-11-05T11:13:00.245Z,15.20
2018-11-05T11:15:28.729Z,16.70
2018-11-05T11:17:58.066Z,16.40
2018-11-05T11:20:26.552Z,15.73
2018-11-05T11:22:55.172Z,16.13
2018-11-05T11:25:23.686Z,14.77
2018-11-05T11:27:58.938Z,14.70
2018-11-05T11:30:27.358Z,14.80
2018-11-05T11:32:55.859Z,13.83
2018-11-05T11:35:24.437Z,13.83
2018-11-05T11:37:52.935Z,15.50
2018-11-05T11:40:23.011Z,13.53
2018-11-05T11:42:51.589Z,14.73
2018-11-05T11:45:21.384Z,12.77
2018-11-05T11:47:50.184Z,13.53
2018-11-05T11:50:19.013Z,12.97
2018-11-05T11:52:48.036Z,13.27
2018-11-05T11:55:17.629Z,12.27
2018-11-05T11:57:46.280Z,12.07
2018-11-05T12:00:17.824Z,12.17
2018-11-05T12:02:47.060Z,12.20
2018-11-05T12:05:15.771Z,12.77
2018-11-05T12:07:44.329Z,11.77
2018-11-05T12:10:16.185Z,11.53
2018-11-05T12:12:44.988Z,11.30
2018-11-05T12:15:14.512Z,11.40
2018-11-05T12:17:43.621Z,12.23
2018-11-05T12:20:14.075Z,10.20
2018-11-05T12:22:43.045Z,10.93
2018-11-05T12:25:11.634Z,10.50
2018-11-05T12:27:40.224Z,11.00
2018-11-05T12:30:11.581Z,10.63
2018-11-05T12:32:40.253Z,10.10
2018-11-05T12:35:09.877Z,10.17
2018-11-05T12:37:38.571Z,10.23
2018-11-05T12:40:08.477Z,9.83
2018-11-05T12:42:36.993Z,9.90
2018-11-05T12:45:06.147Z,9.27
2018-11-05T12:47:34.604Z,9.23
2018-11-05T12:50:03.412Z,9.00
2018-11-05T12:52:32.209Z,9.10
2018-11-05T12:55:00.816Z,9.37
2018-11-05T12:57:29.318Z,8.53
2018-11-05T12:59:57.951Z,8.87
2018-11-05T13:02:27.025Z,9.03
2018-11-05T13:04:56.052Z,8.60
2018-11-05T13:07:25.111Z,8.60
2018-11-05T13:09:53.742Z,9.33
2018-11-05T13:12:22.222Z,9.27
2018-11-05T13:14:50.665Z,7.87
2018-11-05T13:17:19.572Z,7.80
2018-11-05T13:19:48.927Z,7.63
2018-11-05T13:22:23.144Z,8.23
2018-11-05T13:24:52.336Z,8.90
2018-11-05T13:27:21.552Z,8.60
2018-11-05T13:29:50.993Z,8.17
2018-11-05T13:32:19.908Z,8.50
2018-11-05T13:34:48.461Z,7.63
2018-11-05T13:37:18.152Z,8.40
2018-11-05T13:39:46.590Z,8.53
2018-11-05T13:42:15.074Z,7.37
2018-11-05T13:44:44.830Z,7.90
2018-11-05T13:47:16.836Z,8.03
2018-11-05T13:49:45.030Z,8.03
2018-11-05T13:52:14.229Z,8.07
2018-11-05T13:54:42.797Z,8.47
2018-11-05T13:57:11.163Z,8.13
2018-11-05T13:59:40.817Z,8.77
2018-11-05T14:02:09.425Z,8.53
2018-11-05T14:04:37.875Z,8.40
2018-11-05T14:07:07.317Z,8.37
2018-11-05T14:09:38.391Z,8.50
2018-11-05T14:12:09.622Z,9.40
2018-11-05T14:14:38.509Z,9.73
2018-11-05T14:17:08.089Z,9.67
2018-11-05T14:19:39.017Z,10.33
2018-11-05T14:22:08.063Z,9.63
2018-11-05T14:24:41.073Z,9.77
2018-11-05T14:27:09.694Z,9.90
2018-11-05T14:29:38.987Z,9.80
2018-11-05T14:32:07.205Z,10.10
2018-11-05T14:34:36.340Z,10.07
2018-11-05T14:37:06.563Z,10.70
2018-11-05T14:39:35.050Z,11.00
2018-11-05T14:42:06.446Z,11.10
2018-11-05T14:44:35.130Z,10.73
2018-11-05T14:47:04.052Z,10.60
2018-11-05T14:49:32.782Z,10.97
2018-11-05T14:52:01.889Z,11.73
2018-11-05T14:54:30.633Z,12.37
2018-11-05T14:56:59.712Z,11.90
2018-11-05T14:59:28.576Z,12.30
2018-11-05T15:02:02.617Z,12.17
2018-11-05T15:04:31.198Z,11.63
2018-11-05T15:06:59.801Z,12.80
2018-11-05T15:09:30.411Z,12.27
2018-11-05T15:11:59.421Z,12.70
2018-11-05T15:14:28.123Z,12.43
2018-11-05T15:16:56.901Z,12.80
2018-11-05T15:19:25.825Z,12.27
2018-11-05T15:21:55.094Z,12.47
2018-11-05T15:24:23.641Z,12.67
2018-11-05T15:26:52.389Z,12.67
2018-11-05T15:29:20.766Z,13.27
2018-11-05T15:31:49.591Z,12.90
2018-11-05T15:34:18.319Z,13.07
2018-11-05T15:36:47.119Z,13.13
2018-11-05T15:39:15.864Z,13.43
2018-11-05T15:41:45.460Z,13.60
2018-11-05T15:44:14.298Z,14.23
2018-11-05T15:46:43.344Z,14.00
2018-11-05T15:49:12.217Z,13.60
2018-11-05T15:51:41.213Z,13.47
2018-11-05T15:54:09.619Z,13.80
2018-11-05T15:56:38.782Z,14.53
2018-11-05T15:59:07.557Z,14.97
2018-11-05T16:01:36.187Z,14.60
2018-11-05T16:04:05.816Z,14.33
2018-11-05T16:06:34.676Z,14.87
2018-11-05T16:09:03.619Z,14.90
2018-11-05T16:11:32.193Z,14.80
2018-11-05T16:14:00.795Z,14.73
2018-11-05T16:16:30.533Z,14.47
2018-11-05T16:18:59.964Z,14.67
2018-11-05T16:21:28.801Z,14.50
2018-11-05T16:23:57.467Z,14.80
2018-11-05T16:26:26.978Z,15.33
2018-11-05T16:28:56.074Z,15.13
2018-11-05T16:31:24.945Z,14.50
2018-11-05T16:33:53.505Z,14.33
2018-11-05T16:36:23.185Z,14.30
2018-11-05T16:38:55.332Z,15.00
2018-11-05T16:41:23.861Z,14.63
2018-11-05T16:43:52.548Z,15.63
2018-11-05T16:46:21.173Z,15.47
2018-11-05T16:48:49.676Z,15.37
2018-11-05T16:51:19.230Z,14.57
2018-11-05T16:53:48.623Z,15.07
2018-11-05T16:56:17.311Z,15.57
2018-11-05T16:58:46.079Z,15.63
2018-11-05T17:01:15.117Z,15.67
2018-11-05T17:03:43.846Z,16.03
2018-11-05T17:06:12.408Z,16.00
2018-11-05T17:08:40.952Z,16.30
2018-11-05T17:11:09.485Z,15.63
2018-11-05T17:13:38.212Z,16.00
2018-11-05T17:16:06.655Z,17.20
2018-11-05T17:18:36.504Z,16.40
2018-11-05T17:21:05.381Z,16.80
2018-11-05T17:23:33.820Z,17.00
2018-11-05T17:26:02.427Z,16.33
2018-11-05T17:28:31.076Z,16.87
2018-11-05T17:30:59.739Z,16.90
2018-11-05T17:33:28.963Z,17.13
2018-11-05T17:35:57.621Z,17.30
2018-11-05T17:38:26.194Z,17.57
2018-11-05T17:40:54.738Z,17.03
2018-11-05T17:43:23.202Z,17.97
2018-11-05T17:45:51.798Z,18.10
2018-11-05T17:48:20.854Z,17.70
2018-11-05T17:50:49.476Z,17.13
2018-11-05T17:53:18.136Z,18.37
2018-11-05T17:55:46.741Z,19.37
2018-11-05T17:58:15.266Z,18.03
2018-11-05T18:00:44.295Z,19.00
2018-11-05T18:03:12.919Z,18.63
2018-11-05T18:05:41.519Z,18.97
2018-11-05T18:08:09.999Z,18.33
2018-11-05T18:10:38.760Z,19.60
2018-11-05T18:13:08.535Z,18.97
2018-11-05T18:15:37.650Z,19.33
2018-11-05T18:18:08.732Z,20.03
2018-11-05T18:20:37.889Z,19.07
2018-11-05T18:23:15.232Z,19.97
2018-11-05T18:25:59.112Z,20.00
2018-11-05T18:28:33.400Z,19.80
2018-11-05T18:31:06.640Z,20.13
2018-11-05T18:33:39.338Z,20.53
2018-11-05T18:36:13.132Z,21.53
2018-11-05T18:38:43.261Z,21.33
2018-11-05T18:41:17.380Z,21.13
2018-11-05T18:43:48.289Z,21.03
2018-11-05T18:46:18.054Z,21.63
2018-11-05T18:48:47.423Z,21.37
2018-11-05T18:51:16.957Z,21.27
2018-11-05T19:17:12.472Z,23.43
2018-11-05T19:19:41.173Z,22.60
2018-11-05T19:22:09.822Z,22.73
2018-11-05T19:24:38.419Z,23.63
2018-11-05T19:44:30.743Z,24.90
2018-11-05T19:47:08.352Z,24.53
2018-11-05T19:49:41.377Z,25.30
2018-11-05T19:52:09.935Z,23.67
2018-11-05T19:54:38.691Z,24.20
2018-11-05T19:57:07.528Z,23.83
2018-11-05T19:59:36.342Z,24.67
2018-11-05T20:02:06.041Z,24.90
2018-11-05T20:04:34.596Z,25.40
2018-11-05T20:07:03.511Z,25.83
2018-11-05T20:09:36.524Z,26.10
2018-11-05T20:12:26.936Z,26.20
2018-11-05T20:14:55.741Z,26.13
2018-11-05T20:19:18.346Z,26.10
2018-11-05T20:21:56.613Z,26.50
2018-11-05T20:24:25.996Z,28.67
2018-11-05T20:26:55.017Z,27.63
2018-11-05T20:29:25.364Z,29.30
2018-11-05T20:31:55.375Z,29.63
2018-11-05T20:34:24.564Z,29.20
2018-11-05T20:36:53.751Z,29.63
2018-11-05T20:39:23.739Z,31.50
2018-11-05T20:42:03.628Z,29.83
2018-11-05T20:44:39.645Z,29.20
2018-11-05T20:47:13.285Z,29.13
2018-11-05T20:49:43.529Z,30.17
2018-11-05T20:52:14.504Z,32.73
2018-11-05T20:54:46.875Z,30.50
2018-11-05T20:57:16.480Z,29.83
2018-11-05T20:59:46.592Z,30.03
2018-11-05T21:02:20.796Z,29.60
2018-11-05T21:04:49.872Z,30.03
2018-11-05T21:07:18.513Z,29.37
2018-11-05T21:09:49.740Z,29.43
2018-11-05T21:12:19.535Z,28.83
2018-11-05T21:14:49.249Z,29.10
2018-11-05T21:17:20.076Z,30.03
2018-11-05T21:19:54.361Z,28.93
2018-11-05T21:22:33.209Z,29.17
2018-11-05T21:25:03.985Z,30.43
2018-11-05T21:27:34.459Z,29.03
2018-11-05T21:30:03.526Z,30.27
2018-11-05T21:32:38.141Z,30.63
2018-11-05T21:35:09.140Z,29.47
2018-11-05T21:37:37.911Z,30.03
2018-11-05T21:40:07.939Z,30.13
2018-11-05T21:42:37.546Z,31.17
2018-11-05T21:45:07.726Z,30.50
2018-11-05T21:47:37.544Z,30.47
2018-11-05T21:50:09.674Z,31.77
2018-11-05T21:52:43.348Z,31.90
2018-11-05T21:55:12.205Z,30.00
2018-11-05T21:57:44.622Z,30.07
2018-11-05T22:00:19.749Z,31.67
2018-11-05T22:02:54.666Z,31.90
2018-11-05T22:05:23.609Z,32.63
2018-11-05T22:07:52.559Z,32.73
2018-11-05T22:10:22.694Z,32.20
2018-11-05T22:12:52.651Z,32.23
2018-11-05T22:15:25.523Z,33.17
2018-11-05T22:17:54.835Z,62.43
2018-11-05T22:20:23.594Z,82.83
2018-11-05T22:22:52.138Z,77.70
2018-11-05T22:25:20.955Z,69.53
2018-11-05T22:27:49.532Z,65.50
2018-11-05T22:30:17.978Z,61.57
2018-11-05T22:32:46.596Z,60.93
2018-11-05T22:35:15.177Z,58.13
2018-11-05T22:37:43.845Z,59.93
2018-11-05T22:40:13.541Z,58.27
2018-11-05T22:42:42.309Z,56.97
2018-11-05T22:45:12.350Z,56.37
2018-11-05T22:47:41.095Z,54.80
2018-11-05T22:50:10.536Z,54.40
2018-11-05T22:52:39.906Z,52.77
2018-11-05T22:55:08.844Z,55.60
2018-11-05T22:57:37.448Z,54.60
2018-11-05T23:00:15.337Z,54.20
2018-11-05T23:02:49.322Z,54.27
2018-11-05T23:05:18.705Z,51.77
2018-11-05T23:07:47.425Z,53.37
2018-11-05T23:10:16.275Z,53.43
2018-11-05T23:12:44.851Z,52.77
2018-11-05T23:15:13.376Z,52.40
2018-11-05T23:17:42.606Z,52.80
2018-11-05T23:20:11.635Z,48.43
2018-11-05T23:22:40.590Z,52.57
2018-11-05T23:25:09.494Z,49.50
2018-11-05T23:27:39.968Z,51.53
2018-11-05T23:30:10.329Z,49.63
2018-11-05T23:32:39.706Z,48.80
2018-11-05T23:35:08.980Z,49.97
2018-11-05T23:37:38.726Z,49.60
2018-11-05T23:40:08.010Z,49.40
2018-11-05T23:42:37.385Z,50.23
2018-11-05T23:45:09.188Z,48.90
2018-11-05T23:47:37.811Z,49.17
2018-11-05T23:50:07.210Z,49.60
2018-11-05T23:52:35.844Z,49.23
2018-11-05T23:55:04.583Z,50.90
2018-11-05T23:57:33.177Z,48.63
